Time;durP1;ratioP1;P1;durP2;ratioP2;P2;SDS_P1;SDS_P2;PMS_P1;PMS_P2;Temp;Humidity;BMP_temperature;BMP_pressure;BME280_temperature;BME280_humidity;BME280_pressure;Samples;Min_cycle;Max_cycle;Signal;HPM_P1;HPM_P2
2023/05/22 00:01:33;;;;;;;;;;;15.80;74.90;;;14.87;nan;96297.28;5034311;28;20116;-84
2023/05/22 00:04:01;;;;;;;;;;;15.80;74.90;;;14.85;nan;96288.47;5051217;28;19921;-84
2023/05/22 00:06:30;;;;;;;;;;;15.80;74.80;;;14.85;nan;96288.47;5052047;28;20213;-84
2023/05/22 00:08:59;;;;;;;;;;;15.70;74.90;;;14.86;nan;96287.38;5067105;28;19920;-84
2023/05/22 00:11:27;;;;;;;;;;;15.70;75.20;;;14.84;nan;96289.59;5051895;28;19920;-83
2023/05/22 00:13:55;;;;;;;;;;;15.70;74.90;;;14.83;nan;96285.19;5050892;28;19927;-84
2023/05/22 00:16:23;;;;;;;;;;;15.70;74.70;;;14.82;nan;96286.31;5034167;28;19921;-84
2023/05/22 00:18:52;;;;;;;;;;;15.70;74.70;;;14.81;nan;96284.66;5033561;28;19920;-84
2023/05/22 00:21:20;;;;;;;;;;;15.60;74.50;;;14.79;nan;96284.97;5034057;28;19927;-84
2023/05/22 00:23:48;;;;;;;;;;;15.70;74.60;;;14.79;nan;96284.97;5050300;28;19928;-84
2023/05/22 00:26:17;;;;;;;;;;;15.70;74.70;;;14.77;nan;96283.66;5050475;28;19920;-84
2023/05/22 00:28:45;;;;;;;;;;;15.70;74.50;;;14.77;nan;96283.66;5050229;28;19921;-84
2023/05/22 00:31:13;;;;;;;;;;;15.70;74.50;;;14.76;nan;96284.75;5033754;28;19921;-84
2023/05/22 00:33:41;;;;;;;;;;;15.70;74.40;;;14.76;nan;96282.00;5050681;28;19921;-83
2023/05/22 00:36:09;;;;;;;;;;;15.70;74.40;;;14.73;nan;96278.72;5050545;28;19943;-84
2023/05/22 00:38:37;;;;;;;;;;;15.70;74.80;;;14.73;nan;96284.22;5033290;28;19927;-84
2023/05/22 00:41:06;;;;;;;;;;;15.60;74.30;;;14.71;nan;96280.94;5033771;28;19927;-84
2023/05/22 00:43:35;;;;;;;;;;;15.60;74.40;;;14.71;nan;96283.69;5033948;28;19929;-84
2023/05/22 00:46:06;;;;;;;;;;;15.60;74.40;;;14.71;nan;96283.69;5033845;28;19935;-84
2023/05/22 00:48:35;;;;;;;;;;;15.60;74.40;;;14.70;nan;96282.06;5049882;28;19928;-84
2023/05/22 00:51:03;;;;;;;;;;;15.60;74.30;;;14.70;nan;96281.25;5033587;28;19927;-84
2023/05/22 00:53:31;;;;;;;;;;;15.60;74.20;;;14.68;nan;96275.22;5050334;28;20112;-84
2023/05/22 00:55:59;;;;;;;;;;;15.60;74.10;;;14.68;nan;96278.78;5051120;28;19928;-84
2023/05/22 00:58:27;;;;;;;;;;;15.60;74.00;;;14.66;nan;96278.22;5049685;28;19921;-84
2023/05/22 01:00:57;;;;;;;;;;;15.50;73.90;;;14.65;nan;96275.75;5033562;28;20116;-84
2023/05/22 01:03:27;;;;;;;;;;;15.50;73.90;;;14.64;nan;96274.94;5047088;28;19921;-84
2023/05/22 01:05:55;;;;;;;;;;;15.50;74.00;;;14.64;nan;96277.72;5030215;28;19921;-83
2023/05/22 01:08:23;;;;;;;;;;;15.50;74.10;;;14.62;nan;96268.91;5029975;28;19921;-83
2023/05/22 01:10:56;;;;;;;;;;;15.50;74.00;;;14.62;nan;96266.16;5030332;28;19921;-83
2023/05/22 01:13:28;;;;;;;;;;;15.50;74.00;;;14.61;nan;96272.78;5030202;28;19921;-83
2023/05/22 01:16:06;;;;;;;;;;;15.50;74.00;;;14.62;nan;96270.84;5046953;28;19927;-83
2023/05/22 01:18:37;;;;;;;;;;;15.50;73.80;;;14.60;nan;96276.66;5029795;28;20703;-83
2023/05/22 01:21:09;;;;;;;;;;;15.50;73.80;;;14.60;nan;96270.31;5063129;28;19921;-83
2023/05/22 01:24:10;;;;;;;;;;;15.50;73.80;;;14.59;nan;96269.50;5046806;28;19921;-84
2023/05/22 01:26:46;;;;;;;;;;;15.50;73.90;;;14.59;nan;96263.97;5029978;28;19921;-84
2023/05/22 01:29:21;;;;;;;;;;;15.50;73.80;;;14.58;nan;96263.19;5029677;28;19921;-84
2023/05/22 01:31:51;;;;;;;;;;;15.50;73.80;;;14.58;nan;96262.34;5029896;28;19921;-84
2023/05/22 01:34:19;;;;;;;;;;;15.50;73.80;;;14.57;nan;96261.53;5030136;28;20124;-84
2023/05/22 01:36:47;;;;;;;;;;;15.50;73.70;;;14.56;nan;96264.56;5049327;28;19921;-84
2023/05/22 01:39:15;;;;;;;;;;;15.40;73.60;;;14.56;nan;96264.56;5016374;28;19928;-84
2023/05/22 01:41:43;;;;;;;;;;;15.40;73.70;;;14.55;nan;96257.41;5049865;28;19921;-84
2023/05/22 01:44:12;;;;;;;;;;;15.40;73.50;;;14.55;nan;96257.41;5033532;28;19921;-84
2023/05/22 01:46:39;;;;;;;;;;;15.50;73.70;;;14.53;nan;96254.97;5033184;28;20209;-84
2023/05/22 01:49:09;;;;;;;;;;;15.40;73.40;;;14.54;nan;96258.53;5032867;28;19927;-84
2023/05/22 01:51:42;;;;;;;;;;;15.50;73.40;;;14.53;nan;96259.63;5032826;28;19921;-84
2023/05/22 01:54:16;;;;;;;;;;;15.40;73.20;;;14.51;nan;96262.69;5033329;28;20120;-83
2023/05/22 01:56:48;;;;;;;;;;;15.40;73.30;;;14.50;nan;96257.50;5016658;28;20117;-84
2023/05/22 01:59:21;;;;;;;;;;;15.40;73.20;;;14.49;nan;96259.41;5048951;28;20209;-83
2023/05/22 02:01:49;;;;;;;;;;;15.40;73.20;;;14.48;nan;96259.72;5033055;28;19928;-83
2023/05/22 02:04:18;;;;;;;;;;;15.40;73.10;;;14.47;nan;96255.31;5049789;28;20231;-83
2023/05/22 02:06:46;;;;;;;;;;;15.30;73.00;;;14.46;nan;96256.44;5032954;28;19927;-83
2023/05/22 02:09:15;;;;;;;;;;;15.30;73.00;;;14.44;nan;96256.75;5032534;28;19928;-83
2023/05/22 02:11:43;;;;;;;;;;;15.30;72.90;;;14.43;nan;96263.38;5032789;28;19921;-83
2023/05/22 02:14:12;;;;;;;;;;;15.30;72.90;;;14.42;nan;96256.22;5033043;28;19921;-83
2023/05/22 02:16:41;;;;;;;;;;;15.30;72.90;;;14.40;nan;96256.47;5032748;28;19927;-83
2023/05/22 02:19:09;;;;;;;;;;;15.30;72.80;;;14.40;nan;96250.97;5048665;28;19929;-83
2023/05/22 02:21:39;;;;;;;;;;;15.30;72.80;;;14.40;nan;96255.69;5032537;28;19921;-83
2023/05/22 02:24:07;;;;;;;;;;;15.30;72.70;;;14.38;nan;96250.47;5048604;28;19928;-84
2023/05/22 02:26:36;;;;;;;;;;;15.30;72.60;;;14.38;nan;96257.91;5035852;28;20212;-84
2023/05/22 02:29:11;;;;;;;;;;;15.30;72.50;;;14.35;nan;96248.31;5036185;28;19920;-84
2023/05/22 02:31:39;;;;;;;;;;;15.30;72.70;;;14.37;nan;96259.00;5052225;28;19927;-84
2023/05/22 02:34:07;;;;;;;;;;;15.20;72.80;;;14.37;nan;96254.34;5069101;28;19921;-83
2023/05/22 02:36:36;;;;;;;;;;;15.20;72.60;;;14.36;nan;96255.47;5052401;28;19927;-84
2023/05/22 02:39:05;;;;;;;;;;;15.20;72.60;;;14.36;nan;96260.13;5034745;28;19935;-84
2023/05/22 02:41:34;;;;;;;;;;;15.20;72.60;;;14.36;nan;96254.63;5068033;28;19920;-84
2023/05/22 02:44:02;;;;;;;;;;;15.20;72.80;;;14.33;nan;96245.03;5035616;28;20209;-84
2023/05/22 02:46:30;;;;;;;;;;;15.20;72.80;;;14.34;nan;96254.94;5035401;28;19927;-83
2023/05/22 02:48:58;;;;;;;;;;;15.20;72.60;;;14.34;nan;96252.16;5052768;28;20227;-83
2023/05/22 02:51:26;;;;;;;;;;;15.30;72.40;;;14.34;nan;96251.34;5035067;28;19927;-83
2023/05/22 02:53:55;;;;;;;;;;;15.20;72.20;;;14.32;nan;96248.88;5052142;28;20112;-83
2023/05/22 02:56:26;;;;;;;;;;;15.20;72.20;;;14.31;nan;96246.44;5035527;28;19928;-83
2023/05/22 02:58:56;;;;;;;;;;;15.20;72.00;;;14.30;nan;96253.06;5052622;28;19921;-83
2023/05/22 03:01:25;;;;;;;;;;;15.20;72.10;;;14.30;nan;96251.09;5052069;28;19943;-83
2023/05/22 03:03:53;;;;;;;;;;;15.20;73.10;;;14.28;nan;96247.81;5051926;28;19927;-83
2023/05/22 03:06:22;;;;;;;;;;;15.20;72.20;;;14.28;nan;96250.56;5035507;28;19927;-83
2023/05/22 03:08:50;;;;;;;;;;;15.20;72.30;;;14.29;nan;96254.16;5051501;28;19927;-84
2023/05/22 03:11:17;;;;;;;;;;;15.20;72.30;;;14.27;nan;96252.53;5068517;28;20123;-84
2023/05/22 03:13:47;;;;;;;;;;;15.20;72.20;;;14.26;nan;96261.91;5051734;28;19929;-84
2023/05/22 03:16:15;;;;;;;;;;;15.20;72.10;;;14.26;nan;96252.81;5051864;28;19927;-84
2023/05/22 03:18:46;;;;;;;;;;;15.20;72.00;;;14.27;nan;96260.78;5051188;28;19927;-84
2023/05/22 03:21:14;;;;;;;;;;;15.20;72.20;;;14.28;nan;96264.34;5051473;28;19922;-84
2023/05/22 03:23:42;;;;;;;;;;;15.20;72.20;;;14.28;nan;96258.84;5035110;28;19921;-84
2023/05/22 03:26:10;;;;;;;;;;;15.20;72.30;;;14.29;nan;96271.50;5035054;28;19921;-84
2023/05/22 03:28:40;;;;;;;;;;;15.20;72.20;;;14.30;nan;96256.63;5050986;28;19927;-84
2023/05/22 03:31:09;;;;;;;;;;;15.20;72.10;;;14.30;nan;96262.13;5034963;28;19921;-84
2023/05/22 03:33:53;;;;;;;;;;;15.20;72.10;;;14.30;nan;96255.81;5051616;28;19921;-84
2023/05/22 03:36:21;;;;;;;;;;;15.20;72.00;;;14.30;nan;96259.38;5035018;28;19921;-84
2023/05/22 03:38:49;;;;;;;;;;;15.20;72.00;;;14.29;nan;96270.69;5050610;28;19928;-85
2023/05/22 03:41:17;;;;;;;;;;;15.20;72.00;;;14.28;nan;96269.84;5034673;28;19943;-84
2023/05/22 03:43:46;;;;;;;;;;;15.20;72.10;;;14.28;nan;96269.84;5051300;28;19927;-84
2023/05/22 03:46:15;;;;;;;;;;;15.20;72.10;;;14.29;nan;96271.50;5034919;28;19927;-84
2023/05/22 03:48:43;;;;;;;;;;;15.20;72.00;;;14.29;nan;96268.75;5034133;28;19921;-84
2023/05/22 03:51:13;;;;;;;;;;;15.20;72.10;;;14.29;nan;96268.75;5050946;28;19947;-84
2023/05/22 03:53:41;;;;;;;;;;;15.20;72.10;;;14.32;nan;96270.09;5052238;28;19927;-84
2023/05/22 03:56:09;;;;;;;;;;;15.20;72.30;;;14.32;nan;96270.91;5034550;28;19920;-84
2023/05/22 03:58:37;;;;;;;;;;;15.20;72.20;;;14.33;nan;96272.56;5049421;28;19927;-84
2023/05/22 04:01:08;;;;;;;;;;;15.20;72.20;;;14.34;nan;96268.69;5034537;28;19921;-84
2023/05/22 04:03:38;;;;;;;;;;;15.20;72.20;;;14.35;nan;96275.00;5034409;28;19927;-84
2023/05/22 04:06:06;;;;;;;;;;;15.20;72.10;;;14.34;nan;96270.59;5051058;28;19927;-84
2023/05/22 04:08:34;;;;;;;;;;;15.20;72.00;;;14.33;nan;96280.81;5050478;28;20342;-84
2023/05/22 04:11:04;;;;;;;;;;;15.20;71.80;;;14.32;nan;96270.91;5034434;28;19928;-84
2023/05/22 04:13:32;;;;;;;;;;;15.20;72.10;;;14.33;nan;96267.06;5050863;28;19925;-84
2023/05/22 04:16:03;;;;;;;;;;;15.20;72.20;;;14.34;nan;96271.44;5051080;28;19922;-84
2023/05/22 04:18:31;;;;;;;;;;;15.20;72.10;;;14.34;nan;96274.19;5050181;28;19921;-84
2023/05/22 04:21:01;;;;;;;;;;;15.20;72.00;;;14.34;nan;96274.19;5067502;28;19947;-84
2023/05/22 04:23:29;;;;;;;;;;;15.20;72.30;;;14.35;nan;96273.09;5034299;28;19927;-83
2023/05/22 04:26:01;;;;;;;;;;;15.20;72.20;;;14.35;nan;96267.59;5050683;28;19921;-83
2023/05/22 04:28:30;;;;;;;;;;;15.20;72.40;;;14.36;nan;96274.72;5033373;28;19931;-83
2023/05/22 04:30:58;;;;;;;;;;;15.20;72.50;;;14.36;nan;96269.22;5067367;28;20115;-83
2023/05/22 04:33:27;;;;;;;;;;;15.20;72.60;;;14.38;nan;96275.25;5050634;28;19927;-84
2023/05/22 04:35:55;;;;;;;;;;;15.20;72.80;;;14.41;nan;96268.34;5034256;28;19921;-83
2023/05/22 04:38:25;;;;;;;;;;;15.30;73.00;;;14.43;nan;96272.44;5033390;28;19921;-83
2023/05/22 04:40:53;;;;;;;;;;;15.30;73.40;;;14.48;nan;96267.97;5034168;28;19921;-83
2023/05/22 04:43:25;;;;;;;;;;;15.30;73.30;;;14.50;nan;96263.81;5050207;28;20132;-83
2023/05/22 04:45:53;;;;;;;;;;;15.40;73.10;;;14.51;nan;96261.91;5050587;28;19946;-83
2023/05/22 04:48:21;;;;;;;;;;;15.40;73.10;;;14.52;nan;96269.03;5033406;28;19928;-83
2023/05/22 04:50:49;;;;;;;;;;;15.30;73.30;;;14.53;nan;96267.91;5067003;28;20247;-83
2023/05/22 04:53:17;;;;;;;;;;;15.40;73.60;;;14.57;nan;96266.22;5050391;28;19921;-83
2023/05/22 04:55:47;;;;;;;;;;;15.40;73.70;;;14.59;nan;96269.50;5067022;28;19920;-82
2023/05/22 04:58:15;;;;;;;;;;;15.40;73.80;;;14.64;nan;96274.13;5066517;28;20375;-82
2023/05/22 05:00:43;;;;;;;;;;;15.50;74.00;;;14.67;nan;96271.63;5049902;28;19920;-83
2023/05/22 05:03:11;;;;;;;;;;;15.50;74.30;;;14.71;nan;96269.13;5033835;28;19921;-83
2023/05/22 05:05:39;;;;;;;;;;;15.50;74.10;;;14.73;nan;96270.44;5050172;28;19927;-82
2023/05/22 05:08:07;;;;;;;;;;;15.50;74.10;;;14.75;nan;96272.91;5033629;28;19921;-82
2023/05/22 05:10:35;;;;;;;;;;;15.60;74.00;;;14.77;nan;96276.19;5032705;28;19921;-83
2023/05/22 05:13:04;;;;;;;;;;;15.60;74.50;;;14.79;nan;96279.47;5033566;28;20216;-82
2023/05/22 05:15:37;;;;;;;;;;;15.60;74.20;;;14.82;nan;96272.53;5050035;28;19921;-82
2023/05/22 05:18:05;;;;;;;;;;;15.60;74.00;;;14.83;nan;96276.94;5033606;28;20232;-83
2023/05/22 05:20:33;;;;;;;;;;;15.60;74.00;;;14.85;nan;96277.47;5049129;28;19921;-83
2023/05/22 05:23:01;;;;;;;;;;;15.60;74.10;;;14.88;nan;96276.88;5050092;28;19921;-84
2023/05/22 05:25:29;;;;;;;;;;;15.70;74.50;;;14.91;nan;96276.25;5049930;28;19925;-83
2023/05/22 05:27:57;;;;;;;;;;;15.70;73.90;;;14.94;nan;96272.91;5033148;28;20217;-83
2023/05/22 05:30:29;;;;;;;;;;;15.70;73.90;;;14.98;nan;96281.41;5065685;28;19921;-84
2023/05/22 05:33:09;;;;;;;;;;;15.80;73.80;;;15.02;nan;96274.19;5033382;28;19921;-84
2023/05/22 05:35:51;;;;;;;;;;;15.80;73.60;;;15.05;nan;96270.84;5033201;28;19927;-83
2023/05/22 05:38:22;;;;;;;;;;;15.90;73.70;;;15.10;nan;96273.53;5032879;28;20213;-84
2023/05/22 05:40:50;;;;;;;;;;;15.90;73.60;;;15.15;nan;96272.63;5033104;28;19920;-84
2023/05/22 05:43:19;;;;;;;;;;;16.00;73.50;;;15.17;nan;96262.09;5033268;28;19921;-84
2023/05/22 05:45:48;;;;;;;;;;;16.00;73.40;;;15.23;nan;96265.63;5033104;28;19921;-83
2023/05/22 05:48:17;;;;;;;;;;;16.00;73.30;;;15.28;nan;96260.84;5049491;28;19921;-83
2023/05/22 05:50:48;;;;;;;;;;;16.10;73.20;;;15.33;nan;96260.75;5049409;28;19921;-83
2023/05/22 05:53:16;;;;;;;;;;;16.10;72.30;;;15.38;nan;96251.56;5049689;28;19921;-83
2023/05/22 05:55:50;;;;;;;;;;;16.20;72.10;;;15.45;nan;96259.47;5049564;28;19921;-83
2023/05/22 05:58:18;;;;;;;;;;;16.20;72.00;;;15.51;nan;96261.03;5049344;28;19946;-83
2023/05/22 06:00:59;;;;;;;;;;;16.30;71.70;;;15.56;nan;96257.38;5049467;28;20120;-82
2023/05/22 06:03:28;;;;;;;;;;;16.30;71.90;;;15.61;nan;96260.88;5049446;28;19921;-83
2023/05/22 06:06:18;;;;;;;;;;;16.40;71.60;;;15.68;nan;96254.16;5049362;28;19920;-82
2023/05/22 06:09:19;;;;;;;;;;;16.40;71.60;;;15.74;nan;96259.28;5016059;28;20212;-83
2023/05/22 06:12:13;;;;;;;;;;;16.50;71.50;;;15.79;nan;96261.13;5048441;28;19928;-83
2023/05/22 06:14:45;;;;;;;;;;;16.50;71.50;;;15.83;nan;96258.56;5049157;28;19927;-83
2023/05/22 06:17:15;;;;;;;;;;;16.60;71.40;;;15.86;nan;96256.06;5050433;28;19921;-83
2023/05/22 06:19:44;;;;;;;;;;;16.60;71.30;;;15.90;nan;96257.09;5065009;28;19947;-83
2023/05/22 06:22:13;;;;;;;;;;;16.70;71.40;;;15.92;nan;96263.13;5051360;28;19927;-83
2023/05/22 06:24:44;;;;;;;;;;;16.70;71.40;;;15.94;nan;96255.34;5036058;28;20115;-83
2023/05/22 06:27:17;;;;;;;;;;;16.70;71.50;;;15.97;nan;96262.22;5052663;28;19920;-83
2023/05/22 06:29:45;;;;;;;;;;;16.70;71.40;;;15.99;nan;96262.75;5034977;28;19921;-83
2023/05/22 06:32:15;;;;;;;;;;;16.80;71.50;;;16.02;nan;96264.06;5069096;28;19943;-83
2023/05/22 06:34:45;;;;;;;;;;;16.80;71.40;;;16.05;nan;96255.19;5052295;28;19931;-83
2023/05/22 06:37:14;;;;;;;;;;;16.80;71.30;;;16.05;nan;96250.47;5052610;28;19921;-82
2023/05/22 06:39:44;;;;;;;;;;;16.80;71.40;;;16.08;nan;96247.09;5068369;28;19921;-82
2023/05/22 06:42:18;;;;;;;;;;;16.90;71.50;;;16.15;nan;96251.38;5052439;28;19927;-82
2023/05/22 06:45:09;;;;;;;;;;;16.90;71.40;;;16.18;nan;96251.63;5053116;28;19927;-82
2023/05/22 06:47:51;;;;;;;;;;;16.90;71.30;;;16.21;nan;96245.47;5035894;28;19925;-83
2023/05/22 06:50:19;;;;;;;;;;;17.00;71.20;;;16.24;nan;96244.84;5068231;28;19929;-83
2023/05/22 06:52:47;;;;;;;;;;;17.00;71.10;;;16.27;nan;96243.41;5052195;28;20117;-83
2023/05/22 06:55:16;;;;;;;;;;;17.00;71.00;;;16.31;nan;96243.63;5052192;28;19921;-83
2023/05/22 06:57:59;;;;;;;;;;;17.00;71.00;;;16.33;nan;96244.97;5035668;28;19987;-83
2023/05/22 07:00:28;;;;;;;;;;;17.10;70.90;;;16.37;nan;96242.41;5034761;28;19925;-83
2023/05/22 07:03:17;;;;;;;;;;;17.10;70.90;;;16.41;nan;96246.19;5068943;28;19927;-83
2023/05/22 07:06:06;;;;;;;;;;;17.10;70.60;;;16.43;nan;96235.66;5053012;28;19921;-83
2023/05/22 07:08:35;;;;;;;;;;;17.10;70.60;;;16.46;nan;96245.25;5034855;28;19935;-83
2023/05/22 07:11:05;;;;;;;;;;;17.20;70.30;;;16.49;nan;96239.13;5051687;28;19920;-83
2023/05/22 07:13:34;;;;;;;;;;;17.20;70.10;;;16.50;nan;96244.34;5068462;28;19921;-83
2023/05/22 07:16:02;;;;;;;;;;;17.20;70.00;;;16.50;nan;96236.03;5068174;28;19921;-83
2023/05/22 07:18:32;;;;;;;;;;;17.20;70.00;;;16.51;nan;96237.69;5068080;28;19942;-83
2023/05/22 07:21:00;;;;;;;;;;;17.20;69.80;;;16.53;nan;96240.97;5068245;28;19921;-82
2023/05/22 07:23:29;;;;;;;;;;;17.30;69.80;;;16.54;nan;96239.84;5068573;28;19928;-83
2023/05/22 07:25:57;;;;;;;;;;;17.30;69.50;;;16.56;nan;96240.34;5051728;28;19921;-83
2023/05/22 07:28:30;;;;;;;;;;;17.30;69.40;;;16.58;nan;96228.19;5067898;28;20143;-83
2023/05/22 07:31:05;;;;;;;;;;;17.30;69.10;;;16.59;nan;96233.38;5051597;28;20196;-83
2023/05/22 07:33:34;;;;;;;;;;;17.30;68.50;;;16.61;nan;96227.53;5051806;28;20128;-83
2023/05/22 07:36:03;;;;;;;;;;;17.40;68.10;;;16.61;nan;96231.13;5051632;28;19921;-83
2023/05/22 07:38:31;;;;;;;;;;;17.30;68.20;;;16.62;nan;96226.41;5034533;28;19927;-83
2023/05/22 07:41:03;;;;;;;;;;;17.40;68.20;;;16.61;nan;96222.84;5051458;28;20213;-83
2023/05/22 07:43:32;;;;;;;;;;;17.40;67.90;;;16.63;nan;96219.75;5051570;28;19953;-83
2023/05/22 07:46:01;;;;;;;;;;;17.40;67.50;;;16.63;nan;96215.06;5067951;28;19927;-83
2023/05/22 07:48:36;;;;;;;;;;;17.40;67.60;;;16.64;nan;96215.88;5051004;28;19935;-83
2023/05/22 07:51:04;;;;;;;;;;;17.40;66.90;;;16.64;nan;96215.88;5034334;28;19928;-82
2023/05/22 07:53:33;;;;;;;;;;;17.40;67.20;;;16.65;nan;96217.50;5051418;28;19921;-83
2023/05/22 07:56:03;;;;;;;;;;;17.40;67.20;;;16.65;nan;96225.81;5051184;28;19921;-83
2023/05/22 07:58:33;;;;;;;;;;;17.40;67.20;;;16.65;nan;96221.06;5034139;28;19928;-83
2023/05/22 08:01:03;;;;;;;;;;;17.40;67.20;;;16.66;nan;96221.91;5051109;28;19921;-83
2023/05/22 08:03:31;;;;;;;;;;;17.40;66.10;;;16.66;nan;96214.41;5052395;28;19921;-83
2023/05/22 08:06:01;;;;;;;;;;;17.40;66.60;;;16.67;nan;96218.03;5034479;28;19921;-83
2023/05/22 08:08:29;;;;;;;;;;;17.50;67.10;;;16.66;nan;96222.72;5051670;28;19936;-83
2023/05/22 08:10:56;;;;;;;;;;;17.50;66.70;;;16.67;nan;96215.25;5052070;28;19928;-82
2023/05/22 08:13:24;;;;;;;;;;;17.50;67.60;;;16.66;nan;96211.66;5051110;28;19921;-83
2023/05/22 08:15:52;;;;;;;;;;;17.50;66.70;;;16.67;nan;96223.56;5067669;28;19921;-83
2023/05/22 08:18:21;;;;;;;;;;;17.50;66.20;;;16.66;nan;96216.38;5050452;28;19921;-83
2023/05/22 08:20:51;;;;;;;;;;;17.40;66.40;;;16.67;nan;96218.03;5051817;28;20128;-83
2023/05/22 08:23:20;;;;;;;;;;;17.50;66.30;;;16.66;nan;96219.16;5034398;28;20329;-83
2023/05/22 08:25:48;;;;;;;;;;;17.40;66.30;;;16.65;nan;96215.53;5051980;28;19943;-82
2023/05/22 08:28:17;;;;;;;;;;;17.40;66.50;;;16.64;nan;96207.56;5050518;28;19921;-83
2023/05/22 08:30:44;;;;;;;;;;;17.50;66.40;;;16.64;nan;96215.88;5033910;28;19921;-83
2023/05/22 08:33:12;;;;;;;;;;;17.40;66.00;;;16.62;nan;96207.91;5051916;28;19927;-83
2023/05/22 08:35:40;;;;;;;;;;;17.50;66.50;;;16.63;nan;96205.94;5050726;28;19921;-83
2023/05/22 08:38:08;;;;;;;;;;;17.40;66.10;;;16.63;nan;96215.06;5051653;28;19927;-83
2023/05/22 08:40:47;;;;;;;;;;;17.40;65.90;;;16.63;nan;96208.69;5050023;28;19927;-83
2023/05/22 08:43:15;;;;;;;;;;;17.50;66.10;;;16.62;nan;96207.06;5050492;28;19921;-83
2023/05/22 08:45:43;;;;;;;;;;;17.40;66.50;;;16.61;nan;96213.72;5050270;28;20097;-83
2023/05/22 08:48:12;;;;;;;;;;;17.40;66.60;;;16.60;nan;96206.56;5050527;28;19928;-82
2023/05/22 08:50:41;;;;;;;;;;;17.40;66.40;;;16.58;nan;96198.56;5049870;28;19927;-83
2023/05/22 08:53:11;;;;;;;;;;;17.40;65.90;;;16.59;nan;96202.19;5051421;28;19921;-83
2023/05/22 08:55:39;;;;;;;;;;;17.40;65.80;;;16.60;nan;96196.31;5050407;28;19925;-82
2023/05/22 08:58:09;;;;;;;;;;;17.40;66.00;;;16.61;nan;96197.97;5050272;28;19932;-83
2023/05/22 09:00:37;;;;;;;;;;;17.40;65.10;;;16.62;nan;96193.25;5049545;28;19927;-82
2023/05/22 09:03:08;;;;;;;;;;;17.40;65.50;;;16.62;nan;96193.25;5050212;28;20213;-83
2023/05/22 09:05:37;;;;;;;;;;;17.50;65.40;;;16.60;nan;96185.28;5051327;28;19921;-83
2023/05/22 09:08:06;;;;;;;;;;;17.40;66.00;;;16.60;nan;96188.03;5050060;28;20094;-83
2023/05/22 09:10:34;;;;;;;;;;;17.40;65.50;;;16.61;nan;96177.78;5049501;28;19921;-83
2023/05/22 09:13:03;;;;;;;;;;;17.40;65.60;;;16.60;nan;96181.69;5051064;28;19927;-82
2023/05/22 09:15:33;;;;;;;;;;;17.40;65.50;;;16.60;nan;96174.22;5051381;28;19927;-83
2023/05/22 09:18:02;;;;;;;;;;;17.40;65.30;;;16.60;nan;96178.91;5050025;28;20116;-83
2023/05/22 09:20:30;;;;;;;;;;;17.40;65.30;;;16.60;nan;96178.91;5050555;28;19927;-83
2023/05/22 09:22:58;;;;;;;;;;;17.40;64.40;;;16.60;nan;96170.63;5051012;28;19921;-83
2023/05/22 09:25:26;;;;;;;;;;;17.40;65.10;;;16.60;nan;96173.38;5050235;28;19921;-83
2023/05/22 09:27:54;;;;;;;;;;;17.40;65.00;;;16.60;nan;96168.69;5049865;28;19927;-83
2023/05/22 09:30:22;;;;;;;;;;;17.40;65.20;;;16.61;nan;96166.72;5049145;28;20136;-83
2023/05/22 09:32:51;;;;;;;;;;;17.50;65.30;;;16.61;nan;96172.25;5049782;28;19921;-83
2023/05/22 09:35:20;;;;;;;;;;;17.40;64.80;;;16.60;nan;96156.81;5050146;28;19921;-83
2023/05/22 09:37:48;;;;;;;;;;;17.40;65.30;;;16.59;nan;96163.50;5049884;28;19928;-83
2023/05/22 09:40:16;;;;;;;;;;;17.40;65.50;;;16.58;nan;96162.66;5049124;28;19921;-83
2023/05/22 09:42:44;;;;;;;;;;;17.40;65.60;;;16.57;nan;96161.00;5049460;28;19921;-83
2023/05/22 09:45:12;;;;;;;;;;;17.40;65.10;;;16.56;nan;96159.38;5050003;28;19920;-82
2023/05/22 09:47:40;;;;;;;;;;;17.40;66.60;;;16.53;nan;96152.53;5049718;28;19934;-83
2023/05/22 09:50:10;;;;;;;;;;;17.40;67.10;;;16.51;nan;96154.78;5049071;28;19927;-83
2023/05/22 09:52:38;;;;;;;;;;;17.40;66.10;;;16.52;nan;96159.19;5049473;28;19921;-83
2023/05/22 09:55:08;;;;;;;;;;;17.40;66.20;;;16.52;nan;96159.19;5049757;28;20231;-83
2023/05/22 09:57:40;;;;;;;;;;;17.40;65.60;;;16.51;nan;96149.25;5052234;28;19956;-83
2023/05/22 10:00:16;;;;;;;;;;;17.40;65.80;;;16.53;nan;96151.69;5052556;28;19927;-83
2023/05/22 10:02:46;;;;;;;;;;;17.40;66.10;;;16.52;nan;96158.38;5053027;28;19921;-83
2023/05/22 10:05:20;;;;;;;;;;;17.40;66.60;;;16.53;nan;96152.53;5054147;28;19921;-83
2023/05/22 10:07:50;;;;;;;;;;;17.40;65.80;;;16.54;nan;96158.88;5052895;28;19921;-84
2023/05/22 10:10:20;;;;;;;;;;;17.40;65.80;;;16.53;nan;96154.47;5068773;28;20120;-83
2023/05/22 10:12:51;;;;;;;;;;;17.40;65.30;;;16.52;nan;96150.91;5053868;28;19921;-83
2023/05/22 10:15:19;;;;;;;;;;;17.30;65.40;;;16.52;nan;96150.09;5054162;28;19921;-83
2023/05/22 10:17:47;;;;;;;;;;;17.40;66.30;;;16.50;nan;96153.16;5052752;28;19921;-83
2023/05/22 10:20:17;;;;;;;;;;;17.40;65.60;;;16.49;nan;96151.50;5053069;28;19927;-83
2023/05/22 10:22:45;;;;;;;;;;;17.30;66.30;;;16.47;nan;96148.22;5053700;28;19927;-83
2023/05/22 10:25:13;;;;;;;;;;;17.30;66.60;;;16.46;nan;96135.53;5069336;28;19928;-83
2023/05/22 10:27:40;;;;;;;;;;;17.30;65.70;;;16.45;nan;96145.00;5053542;28;20267;-83
2023/05/22 10:30:20;;;;;;;;;;;17.30;65.30;;;16.46;nan;96138.31;5053221;28;19949;-83
2023/05/22 10:33:12;;;;;;;;;;;17.30;65.00;;;16.48;nan;96144.34;5053705;28;20209;-83
2023/05/22 10:35:44;;;;;;;;;;;17.30;64.80;;;16.48;nan;96143.53;5052650;28;20115;-83
2023/05/22 10:38:35;;;;;;;;;;;17.30;65.40;;;16.47;nan;96145.47;5035723;28;19943;-83
2023/05/22 10:41:03;;;;;;;;;;;17.30;65.20;;;16.47;nan;96139.94;5033559;28;20205;-84
2023/05/22 10:43:31;;;;;;;;;;;17.30;65.70;;;16.46;nan;96141.06;5035591;28;19927;-83
2023/05/22 10:46:03;;;;;;;;;;;17.30;65.80;;;16.43;nan;96127.91;5035791;28;19921;-84
2023/05/22 10:48:36;;;;;;;;;;;17.30;67.00;;;16.41;nan;96132.91;5051851;28;19921;-83
2023/05/22 10:51:06;;;;;;;;;;;17.30;67.10;;;16.38;nan;96128.00;5052221;28;19929;-83
2023/05/22 10:53:34;;;;;;;;;;;17.30;67.60;;;16.37;nan;96112.53;5068911;28;19928;-84
2023/05/22 10:56:10;;;;;;;;;;;17.20;67.70;;;16.34;nan;96122.28;5052301;28;19921;-83
2023/05/22 10:58:38;;;;;;;;;;;17.20;68.00;;;16.34;nan;96124.22;5051651;28;19925;-83
2023/05/22 11:01:13;;;;;;;;;;;17.20;68.10;;;16.32;nan;96118.19;5052329;28;19927;-83
2023/05/22 11:03:56;;;;;;;;;;;17.10;68.20;;;16.29;nan;96113.28;5053243;28;20250;-83
2023/05/22 11:06:39;;;;;;;;;;;17.20;68.40;;;16.28;nan;96114.41;5068643;28;19927;-84
2023/05/22 11:09:21;;;;;;;;;;;17.10;68.40;;;16.26;nan;96104.50;5052337;28;19921;-84
2023/05/22 11:12:13;;;;;;;;;;;17.10;68.10;;;16.28;nan;96108.88;5051994;28;19921;-83
2023/05/22 11:14:41;;;;;;;;;;;17.10;68.50;;;16.25;nan;96102.84;5051911;28;19921;-84
2023/05/22 11:17:09;;;;;;;;;;;17.10;68.60;;;16.26;nan;96093.44;5051959;28;19920;-84
2023/05/22 11:19:37;;;;;;;;;;;17.10;68.50;;;16.26;nan;96089.88;5051246;28;20224;-83
2023/05/22 11:22:06;;;;;;;;;;;17.10;67.90;;;16.27;nan;96085.97;5053168;28;19921;-84
2023/05/22 11:24:34;;;;;;;;;;;17.10;66.60;;;16.28;nan;96093.13;5051567;28;19921;-84
2023/05/22 11:27:04;;;;;;;;;;;17.10;66.80;;;16.29;nan;96091.19;5051813;28;19921;-84
2023/05/22 11:29:32;;;;;;;;;;;17.20;68.20;;;16.28;nan;96090.34;5051078;28;19921;-84
2023/05/22 11:32:00;;;;;;;;;;;17.10;68.40;;;16.28;nan;96087.59;5052829;28;19927;-84
2023/05/22 11:34:28;;;;;;;;;;;17.20;68.00;;;16.29;nan;96085.66;5051480;28;19928;-84
2023/05/22 11:36:59;;;;;;;;;;;17.20;67.40;;;16.30;nan;96092.84;5051542;28;20239;-85
2023/05/22 11:39:29;;;;;;;;;;;17.10;67.30;;;16.30;nan;96081.78;5034170;28;19928;-84
2023/05/22 11:41:57;;;;;;;;;;;17.10;66.50;;;16.31;nan;96083.41;5051615;28;19920;-84
2023/05/22 11:44:27;;;;;;;;;;;17.10;66.60;;;16.31;nan;96073.16;5034658;28;19920;-84
2023/05/22 11:46:55;;;;;;;;;;;17.20;66.70;;;16.32;nan;96074.81;5084966;28;19927;-84
2023/05/22 11:49:24;;;;;;;;;;;17.10;66.30;;;16.34;nan;96074.47;5034218;28;19927;-84